sensor_id;sensor_type;location;lat;lon;timestamp;pressure;altitude;pressure_sealevel;temperature
66113;BMP280;52893;52.870;5.822;2023-07-29T00:00:20;100573.13;;;20.14
66113;BMP280;52893;52.870;5.822;2023-07-29T00:02:47;100573.13;;;20.11
66113;BMP280;52893;52.870;5.822;2023-07-29T00:05:16;100567.59;;;20.00
66113;BMP280;52893;52.870;5.822;2023-07-29T00:07:43;100575.53;;;20.02
66113;BMP280;52893;52.870;5.822;2023-07-29T00:10:10;100566.47;;;19.94
66113;BMP280;52893;52.870;5.822;2023-07-29T00:12:37;100573.59;;;19.95
66113;BMP280;52893;52.870;5.822;2023-07-29T00:15:06;100571.22;;;19.90
66113;BMP280;52893;52.870;5.822;2023-07-29T00:17:33;100573.59;;;19.85
66113;BMP280;52893;52.870;5.822;2023-07-29T00:20:01;100573.59;;;19.77
66113;BMP280;52893;52.870;5.822;2023-07-29T00:22:30;100570.44;;;19.72
66113;BMP280;52893;52.870;5.822;2023-07-29T00:24:57;100560.94;;;19.62
66113;BMP280;52893;52.870;5.822;2023-07-29T00:27:25;100570.84;;;19.63
66113;BMP280;52893;52.870;5.822;2023-07-29T00:29:54;100562.53;;;19.60
66113;BMP280;52893;52.870;5.822;2023-07-29T00:32:22;100561.78;;;19.56
66113;BMP280;52893;52.870;5.822;2023-07-29T00:34:49;100564.13;;;19.54
66113;BMP280;52893;52.870;5.822;2023-07-29T00:37:16;100561.72;;;19.52
66113;BMP280;52893;52.870;5.822;2023-07-29T00:39:47;100559.38;;;19.51
66113;BMP280;52893;52.870;5.822;2023-07-29T00:42:14;100560.19;;;19.51
66113;BMP280;52893;52.870;5.822;2023-07-29T00:44:41;100551.88;;;19.51
66113;BMP280;52893;52.870;5.822;2023-07-29T00:47:09;100546.31;;;19.48
66113;BMP280;52893;52.870;5.822;2023-07-29T00:49:38;100555.41;;;19.45
66113;BMP280;52893;52.870;5.822;2023-07-29T00:52:06;100551.84;;;19.41
66113;BMP280;52893;52.870;5.822;2023-07-29T00:54:33;100546.34;;;19.37
66113;BMP280;52893;52.870;5.822;2023-07-29T00:57:04;100547.91;;;19.35
66113;BMP280;52893;52.870;5.822;2023-07-29T00:59:34;100541.56;;;19.31
66113;BMP280;52893;52.870;5.822;2023-07-29T01:02:02;100547.91;;;19.35
66113;BMP280;52893;52.870;5.822;2023-07-29T01:04:31;100535.66;;;19.29
66113;BMP280;52893;52.870;5.822;2023-07-29T01:07:02;100541.19;;;19.32
66113;BMP280;52893;52.870;5.822;2023-07-29T01:09:37;100542.81;;;19.30
66113;BMP280;52893;52.870;5.822;2023-07-29T01:12:13;100534.88;;;19.25
66113;BMP280;52893;52.870;5.822;2023-07-29T01:14:49;100532.47;;;19.23
66113;BMP280;52893;52.870;5.822;2023-07-29T01:17:22;100526.97;;;19.19
66113;BMP280;52893;52.870;5.822;2023-07-29T01:19:59;100522.22;;;19.16
66113;BMP280;52893;52.870;5.822;2023-07-29T01:22:28;100530.09;;;19.14
66113;BMP280;52893;52.870;5.822;2023-07-29T01:24:59;100532.47;;;19.12
66113;BMP280;52893;52.870;5.822;2023-07-29T01:27:26;100530.13;;;19.07
66113;BMP280;52893;52.870;5.822;2023-07-29T01:29:54;100527.31;;;19.04
66113;BMP280;52893;52.870;5.822;2023-07-29T01:32:35;100513.88;;;18.88
66113;BMP280;52893;52.870;5.822;2023-07-29T01:35:12;100530.09;;;18.93
66113;BMP280;52893;52.870;5.822;2023-07-29T01:37:44;100511.06;;;18.74
66113;BMP280;52893;52.870;5.822;2023-07-29T01:40:17;100533.63;;;18.87
66113;BMP280;52893;52.870;5.822;2023-07-29T01:42:45;100473.09;;;18.50
66113;BMP280;52893;52.870;5.822;2023-07-29T01:45:13;100526.91;;;18.81
66113;BMP280;52893;52.870;5.822;2023-07-29T01:47:40;100532.84;;;18.79
66113;BMP280;52893;52.870;5.822;2023-07-29T01:50:08;100523.75;;;18.79
66113;BMP280;52893;52.870;5.822;2023-07-29T01:52:35;100524.13;;;18.77
66113;BMP280;52893;52.870;5.822;2023-07-29T01:55:03;100513.44;;;18.68
66113;BMP280;52893;52.870;5.822;2023-07-29T01:57:33;100510.25;;;18.66
66113;BMP280;52893;52.870;5.822;2023-07-29T02:00:00;100516.19;;;18.68
66113;BMP280;52893;52.870;5.822;2023-07-29T02:02:28;100509.09;;;18.60
66113;BMP280;52893;52.870;5.822;2023-07-29T02:04:57;100516.19;;;18.61
66113;BMP280;52893;52.870;5.822;2023-07-29T02:07:24;100511.84;;;18.57
66113;BMP280;52893;52.870;5.822;2023-07-29T02:09:53;100499.94;;;18.49
66113;BMP280;52893;52.870;5.822;2023-07-29T02:12:20;100473.44;;;18.31
66113;BMP280;52893;52.870;5.822;2023-07-29T02:14:49;100486.50;;;18.41
66113;BMP280;52893;52.870;5.822;2023-07-29T02:17:16;100456.44;;;18.22
66113;BMP280;52893;52.870;5.822;2023-07-29T02:19:44;100488.88;;;18.42
66113;BMP280;52893;52.870;5.822;2023-07-29T02:22:13;100493.63;;;18.49
66113;BMP280;52893;52.870;5.822;2023-07-29T02:24:42;100489.69;;;18.43
66113;BMP280;52893;52.870;5.822;2023-07-29T02:27:09;100503.50;;;18.46
66113;BMP280;52893;52.870;5.822;2023-07-29T02:29:37;100503.50;;;18.43
66113;BMP280;52893;52.870;5.822;2023-07-29T02:32:06;100499.94;;;18.39
66113;BMP280;52893;52.870;5.822;2023-07-29T02:34:33;100497.56;;;18.34
66113;BMP280;52893;52.870;5.822;2023-07-29T02:37:00;100498.31;;;18.31
66113;BMP280;52893;52.870;5.822;2023-07-29T02:39:27;100492.75;;;18.27
66113;BMP280;52893;52.870;5.822;2023-07-29T02:41:55;100505.41;;;18.25
66113;BMP280;52893;52.870;5.822;2023-07-29T02:44:24;100453.97;;;17.95
66113;BMP280;52893;52.870;5.822;2023-07-29T02:46:51;100484.78;;;18.11
66113;BMP280;52893;52.870;5.822;2023-07-29T02:49:22;100474.53;;;18.05
66113;BMP280;52893;52.870;5.822;2023-07-29T02:51:50;100496.28;;;18.13
66113;BMP280;52893;52.870;5.822;2023-07-29T02:54:18;100490.31;;;18.11
66113;BMP280;52893;52.870;5.822;2023-07-29T02:56:45;100460.28;;;17.99
66113;BMP280;52893;52.870;5.822;2023-07-29T02:59:13;100482.47;;;18.13
66113;BMP280;52893;52.870;5.822;2023-07-29T03:01:40;100477.31;;;18.16
66113;BMP280;52893;52.870;5.822;2023-07-29T03:04:07;100475.34;;;18.16
66113;BMP280;52893;52.870;5.822;2023-07-29T03:06:38;100473.78;;;18.19
66113;BMP280;52893;52.870;5.822;2023-07-29T03:09:05;100457.94;;;18.08
66113;BMP280;52893;52.870;5.822;2023-07-29T03:11:33;100474.63;;;18.26
66113;BMP280;52893;52.870;5.822;2023-07-29T03:14:01;100468.25;;;18.19
66113;BMP280;52893;52.870;5.822;2023-07-29T03:16:30;100480.13;;;18.26
66113;BMP280;52893;52.870;5.822;2023-07-29T03:18:59;100481.72;;;18.24
66113;BMP280;52893;52.870;5.822;2023-07-29T03:21:27;100476.94;;;18.21
66113;BMP280;52893;52.870;5.822;2023-07-29T03:23:58;100477.34;;;18.19
66113;BMP280;52893;52.870;5.822;2023-07-29T03:26:27;100482.47;;;18.17
66113;BMP280;52893;52.870;5.822;2023-07-29T03:28:56;100472.19;;;18.18
66113;BMP280;52893;52.870;5.822;2023-07-29T03:31:23;100472.19;;;18.18
66113;BMP280;52893;52.870;5.822;2023-07-29T03:33:50;100473.00;;;18.18
66113;BMP280;52893;52.870;5.822;2023-07-29T03:36:18;100465.50;;;18.19
66113;BMP280;52893;52.870;5.822;2023-07-29T03:38:45;100474.94;;;18.18
66113;BMP280;52893;52.870;5.822;2023-07-29T03:41:15;100475.34;;;18.16
66113;BMP280;52893;52.870;5.822;2023-07-29T03:43:42;100467.03;;;18.09
66113;BMP280;52893;52.870;5.822;2023-07-29T03:46:11;100466.69;;;18.14
66113;BMP280;52893;52.870;5.822;2023-07-29T03:48:40;100467.47;;;18.15
66113;BMP280;52893;52.870;5.822;2023-07-29T03:51:08;100469.44;;;18.18
66113;BMP280;52893;52.870;5.822;2023-07-29T03:53:38;100472.19;;;18.18
66113;BMP280;52893;52.870;5.822;2023-07-29T03:56:05;100456.03;;;18.16
66113;BMP280;52893;52.870;5.822;2023-07-29T03:58:34;100448.53;;;18.17
66113;BMP280;52893;52.870;5.822;2023-07-29T04:01:02;100452.84;;;18.18
66113;BMP280;52893;52.870;5.822;2023-07-29T04:03:30;100434.28;;;18.04
66113;BMP280;52893;52.870;5.822;2023-07-29T04:05:58;100452.44;;;18.12
66113;BMP280;52893;52.870;5.822;2023-07-29T04:08:26;100437.84;;;18.11
66113;BMP280;52893;52.870;5.822;2023-07-29T04:10:56;100446.13;;;18.11
66113;BMP280;52893;52.870;5.822;2023-07-29T04:13:23;100441.41;;;18.12
66113;BMP280;52893;52.870;5.822;2023-07-29T04:15:53;100444.16;;;18.12
66113;BMP280;52893;52.870;5.822;2023-07-29T04:18:20;100437.84;;;18.11
66113;BMP280;52893;52.870;5.822;2023-07-29T04:20:48;100441.78;;;18.10
66113;BMP280;52893;52.870;5.822;2023-07-29T04:23:15;100447.31;;;18.10
66113;BMP280;52893;52.870;5.822;2023-07-29T04:25:44;100441.34;;;18.01
66113;BMP280;52893;52.870;5.822;2023-07-29T04:28:11;100448.50;;;18.09
66113;BMP280;52893;52.870;5.822;2023-07-29T04:30:38;100427.88;;;17.93
66113;BMP280;52893;52.870;5.822;2023-07-29T04:33:07;100414.47;;;17.88
66113;BMP280;52893;52.870;5.822;2023-07-29T04:35:37;100405.78;;;17.89
66113;BMP280;52893;52.870;5.822;2023-07-29T04:38:04;100421.63;;;18.03
66113;BMP280;52893;52.870;5.822;2023-07-29T04:40:32;100446.16;;;18.19
66113;BMP280;52893;52.870;5.822;2023-07-29T04:43:00;100420.47;;;18.07
66113;BMP280;52893;52.870;5.822;2023-07-29T04:45:28;100454.88;;;18.28
66113;BMP280;52893;52.870;5.822;2023-07-29T04:47:55;100460.41;;;18.31
66113;BMP280;52893;52.870;5.822;2023-07-29T04:50:24;100452.91;;;18.32
66113;BMP280;52893;52.870;5.822;2023-07-29T04:52:51;100458.06;;;18.33
66113;BMP280;52893;52.870;5.822;2023-07-29T04:55:19;100454.91;;;18.35
66113;BMP280;52893;52.870;5.822;2023-07-29T04:57:46;100443.44;;;18.33
66113;BMP280;52893;52.870;5.822;2023-07-29T05:00:14;100447.00;;;18.37
66113;BMP280;52893;52.870;5.822;2023-07-29T05:02:41;100458.84;;;18.37
66113;BMP280;52893;52.870;5.822;2023-07-29T05:05:08;100454.13;;;18.38
66113;BMP280;52893;52.870;5.822;2023-07-29T05:07:37;100455.72;;;18.39
66113;BMP280;52893;52.870;5.822;2023-07-29T05:10:06;100449.78;;;18.40
66113;BMP280;52893;52.870;5.822;2023-07-29T05:12:33;100458.09;;;18.44
66113;BMP280;52893;52.870;5.822;2023-07-29T05:15:01;100401.91;;;18.04
66113;BMP280;52893;52.870;5.822;2023-07-29T05:17:28;100468.34;;;18.47
66113;BMP280;52893;52.870;5.822;2023-07-29T05:19:55;100474.28;;;18.49
66113;BMP280;52893;52.870;5.822;2023-07-29T05:22:22;100399.53;;;18.03
66113;BMP280;52893;52.870;5.822;2023-07-29T05:24:52;100476.28;;;18.55
66113;BMP280;52893;52.870;5.822;2023-07-29T05:27:19;100477.44;;;18.58
66113;BMP280;52893;52.870;5.822;2023-07-29T05:29:47;100476.28;;;18.62
66113;BMP280;52893;52.870;5.822;2023-07-29T05:32:14;100477.88;;;18.67
66113;BMP280;52893;52.870;5.822;2023-07-29T05:34:42;100465.66;;;18.72
66113;BMP280;52893;52.870;5.822;2023-07-29T05:37:09;100468.41;;;18.75
66113;BMP280;52893;52.870;5.822;2023-07-29T05:39:36;100470.38;;;18.85
66113;BMP280;52893;52.870;5.822;2023-07-29T05:42:06;100464.47;;;18.90
66113;BMP280;52893;52.870;5.822;2023-07-29T05:44:34;100460.53;;;18.91
66113;BMP280;52893;52.870;5.822;2023-07-29T05:47:01;100468.44;;;19.00
66113;BMP280;52893;52.870;5.822;2023-07-29T05:49:28;100409.56;;;18.64
66113;BMP280;52893;52.870;5.822;2023-07-29T05:51:56;100470.44;;;19.10
66113;BMP280;52893;52.870;5.822;2023-07-29T05:54:23;100477.97;;;19.20
66113;BMP280;52893;52.870;5.822;2023-07-29T05:56:50;100471.22;;;19.28
66113;BMP280;52893;52.870;5.822;2023-07-29T05:59:19;100455.78;;;19.27
66113;BMP280;52893;52.870;5.822;2023-07-29T06:01:48;100464.44;;;19.40
66113;BMP280;52893;52.870;5.822;2023-07-29T06:04:15;100475.13;;;19.52
66113;BMP280;52893;52.870;5.822;2023-07-29T06:06:43;100473.16;;;19.56
66113;BMP280;52893;52.870;5.822;2023-07-29T06:09:10;100482.63;;;19.62
66113;BMP280;52893;52.870;5.822;2023-07-29T06:11:37;100471.16;;;19.67
66113;BMP280;52893;52.870;5.822;2023-07-29T06:14:04;100450.19;;;19.62
66113;BMP280;52893;52.870;5.822;2023-07-29T06:16:33;100465.94;;;19.79
66113;BMP280;52893;52.870;5.822;2023-07-29T06:19:00;100479.38;;;19.88
66113;BMP280;52893;52.870;5.822;2023-07-29T06:21:27;100479.38;;;19.95
66113;BMP280;52893;52.870;5.822;2023-07-29T06:23:55;100476.97;;;20.01
66113;BMP280;52893;52.870;5.822;2023-07-29T06:26:22;100463.56;;;19.89
66113;BMP280;52893;52.870;5.822;2023-07-29T06:28:49;100476.94;;;20.08
66113;BMP280;52893;52.870;5.822;2023-07-29T06:31:16;100475.34;;;20.10
66113;BMP280;52893;52.870;5.822;2023-07-29T06:33:45;100455.22;;;19.96
66113;BMP280;52893;52.870;5.822;2023-07-29T06:36:12;100472.97;;;20.09
66113;BMP280;52893;52.870;5.822;2023-07-29T06:38:39;100481.69;;;20.07
66113;BMP280;52893;52.870;5.822;2023-07-29T06:41:07;100482.06;;;20.13
66113;BMP280;52893;52.870;5.822;2023-07-29T06:43:35;100479.28;;;20.13
66113;BMP280;52893;52.870;5.822;2023-07-29T06:46:02;100473.38;;;20.14
66113;BMP280;52893;52.870;5.822;2023-07-29T06:48:29;100471.78;;;20.10
66113;BMP280;52893;52.870;5.822;2023-07-29T06:50:57;100478.47;;;20.16
66113;BMP280;52893;52.870;5.822;2023-07-29T06:53:26;100461.13;;;20.01
66113;BMP280;52893;52.870;5.822;2023-07-29T06:55:53;100483.22;;;20.15
66113;BMP280;52893;52.870;5.822;2023-07-29T06:58:21;100482.03;;;20.23
66113;BMP280;52893;52.870;5.822;2023-07-29T07:00:48;100453.53;;;20.23
66113;BMP280;52893;52.870;5.822;2023-07-29T07:03:15;100484.59;;;20.55
66113;BMP280;52893;52.870;5.822;2023-07-29T07:05:43;100476.56;;;20.71
66113;BMP280;52893;52.870;5.822;2023-07-29T07:08:11;100479.63;;;20.87
66113;BMP280;52893;52.870;5.822;2023-07-29T07:10:38;100441.69;;;20.74
66113;BMP280;52893;52.870;5.822;2023-07-29T07:13:06;100481.88;;;21.03
66113;BMP280;52893;52.870;5.822;2023-07-29T07:15:33;100476.81;;;20.91
66113;BMP280;52893;52.870;5.822;2023-07-29T07:18:01;100494.66;;;20.90
66113;BMP280;52893;52.870;5.822;2023-07-29T07:20:29;100495.19;;;20.74
66113;BMP280;52893;52.870;5.822;2023-07-29T07:22:57;100490.47;;;20.68
66113;BMP280;52893;52.870;5.822;2023-07-29T07:25:26;100485.72;;;20.65
66113;BMP280;52893;52.870;5.822;2023-07-29T07:27:53;100490.41;;;20.71
66113;BMP280;52893;52.870;5.822;2023-07-29T07:30:21;100495.56;;;20.73
66113;BMP280;52893;52.870;5.822;2023-07-29T07:32:48;100499.53;;;20.79
66113;BMP280;52893;52.870;5.822;2023-07-29T07:35:16;100501.47;;;20.82
66113;BMP280;52893;52.870;5.822;2023-07-29T07:37:44;100496.28;;;20.84
66113;BMP280;52893;52.870;5.822;2023-07-29T07:40:12;100460.84;;;20.54
66113;BMP280;52893;52.870;5.822;2023-07-29T07:42:40;100507.00;;;20.82
66113;BMP280;52893;52.870;5.822;2023-07-29T07:45:08;100509.75;;;20.89
66113;BMP280;52893;52.870;5.822;2023-07-29T07:47:35;100499.47;;;20.86
66113;BMP280;52893;52.870;5.822;2023-07-29T07:50:03;100493.59;;;20.77
66113;BMP280;52893;52.870;5.822;2023-07-29T07:52:31;100510.94;;;20.88
66113;BMP280;52893;52.870;5.822;2023-07-29T07:54:59;100509.75;;;20.89
66113;BMP280;52893;52.870;5.822;2023-07-29T07:57:28;100519.69;;;20.83
66113;BMP280;52893;52.870;5.822;2023-07-29T07:59:57;100504.19;;;20.89
66113;BMP280;52893;52.870;5.822;2023-07-29T08:02:25;100511.19;;;21.04
66113;BMP280;52893;52.870;5.822;2023-07-29T08:04:52;100513.84;;;21.18
66113;BMP280;52893;52.870;5.822;2023-07-29T08:07:19;100472.28;;;21.15
66113;BMP280;52893;52.870;5.822;2023-07-29T08:09:46;100486.63;;;21.47
66113;BMP280;52893;52.870;5.822;2023-07-29T08:12:14;100520.84;;;21.74
66113;BMP280;52893;52.870;5.822;2023-07-29T08:14:41;100507.28;;;21.83
66113;BMP280;52893;52.870;5.822;2023-07-29T08:17:10;100508.53;;;21.75
66113;BMP280;52893;52.870;5.822;2023-07-29T08:19:37;100521.88;;;21.91
66113;BMP280;52893;52.870;5.822;2023-07-29T08:22:05;100508.53;;;22.09
66113;BMP280;52893;52.870;5.822;2023-07-29T08:24:32;100513.75;;;22.34
66113;BMP280;52893;52.870;5.822;2023-07-29T08:27:00;100481.47;;;22.13
66113;BMP280;52893;52.870;5.822;2023-07-29T08:29:27;100513.88;;;22.23
66113;BMP280;52893;52.870;5.822;2023-07-29T08:31:54;100509.38;;;22.06
66113;BMP280;52893;52.870;5.822;2023-07-29T08:34:26;100513.94;;;22.20
66113;BMP280;52893;52.870;5.822;2023-07-29T08:36:53;100512.31;;;22.22
66113;BMP280;52893;52.870;5.822;2023-07-29T08:39:20;100515.09;;;22.22
66113;BMP280;52893;52.870;5.822;2023-07-29T08:41:54;100519.44;;;22.23
66113;BMP280;52893;52.870;5.822;2023-07-29T08:44:24;100521.13;;;22.17
66113;BMP280;52893;52.870;5.822;2023-07-29T08:46:52;100506.28;;;21.97
66113;BMP280;52893;52.870;5.822;2023-07-29T08:49:23;100528.94;;;21.99
66113;BMP280;52893;52.870;5.822;2023-07-29T08:51:53;100526.16;;;21.99
66113;BMP280;52893;52.870;5.822;2023-07-29T08:54:21;100522.88;;;22.04
66113;BMP280;52893;52.870;5.822;2023-07-29T08:56:49;100458.22;;;21.66
66113;BMP280;52893;52.870;5.822;2023-07-29T08:59:16;100525.16;;;22.13
66113;BMP280;52893;52.870;5.822;2023-07-29T09:01:45;100521.03;;;22.24
66113;BMP280;52893;52.870;5.822;2023-07-29T09:04:12;100522.38;;;22.43
66113;BMP280;52893;52.870;5.822;2023-07-29T09:06:43;100514.88;;;22.66
66113;BMP280;52893;52.870;5.822;2023-07-29T09:09:11;100521.56;;;22.69
66113;BMP280;52893;52.870;5.822;2023-07-29T09:11:39;100519.59;;;22.69
66113;BMP280;52893;52.870;5.822;2023-07-29T09:14:06;100482.50;;;22.49
66113;BMP280;52893;52.870;5.822;2023-07-29T09:16:34;100519.50;;;22.77
66113;BMP280;52893;52.870;5.822;2023-07-29T09:19:02;100527.13;;;22.96
66113;BMP280;52893;52.870;5.822;2023-07-29T09:21:29;100511.50;;;23.02
66113;BMP280;52893;52.870;5.822;2023-07-29T09:24:02;100520.16;;;23.07
66113;BMP280;52893;52.870;5.822;2023-07-29T09:26:30;100530.88;;;22.86
66113;BMP280;52893;52.870;5.822;2023-07-29T09:28:58;100528.88;;;22.59
66113;BMP280;52893;52.870;5.822;2023-07-29T09:31:26;100526.41;;;22.38
66113;BMP280;52893;52.870;5.822;2023-07-29T09:33:56;100501.22;;;22.22
66113;BMP280;52893;52.870;5.822;2023-07-29T09:36:23;100528.94;;;22.29
66113;BMP280;52893;52.870;5.822;2023-07-29T09:38:52;100499.50;;;22.01
66113;BMP280;52893;52.870;5.822;2023-07-29T09:41:23;100531.69;;;21.99
66113;BMP280;52893;52.870;5.822;2023-07-29T09:43:55;100531.50;;;21.83
66113;BMP280;52893;52.870;5.822;2023-07-29T09:46:32;100532.41;;;21.69
66113;BMP280;52893;52.870;5.822;2023-07-29T09:49:01;100529.91;;;21.44
66113;BMP280;52893;52.870;5.822;2023-07-29T09:51:28;100507.31;;;20.98
66113;BMP280;52893;52.870;5.822;2023-07-29T09:53:56;100527.22;;;20.86
66113;BMP280;52893;52.870;5.822;2023-07-29T09:56:26;100507.53;;;20.66
66113;BMP280;52893;52.870;5.822;2023-07-29T09:58:55;100514.47;;;20.92
66113;BMP280;52893;52.870;5.822;2023-07-29T10:01:23;100514.22;;;21.24
66113;BMP280;52893;52.870;5.822;2023-07-29T10:03:51;100505.47;;;21.25
66113;BMP280;52893;52.870;5.822;2023-07-29T10:06:19;100531.22;;;21.29
66113;BMP280;52893;52.870;5.822;2023-07-29T10:08:47;100526.91;;;21.21
66113;BMP280;52893;52.870;5.822;2023-07-29T10:11:16;100530.94;;;21.17
66113;BMP280;52893;52.870;5.822;2023-07-29T10:13:48;100541.25;;;21.16
66113;BMP280;52893;52.870;5.822;2023-07-29T10:16:15;100543.56;;;21.25
66113;BMP280;52893;52.870;5.822;2023-07-29T10:18:43;100537.16;;;21.31
66113;BMP280;52893;52.870;5.822;2023-07-29T10:21:13;100528.00;;;21.34
66113;BMP280;52893;52.870;5.822;2023-07-29T10:23:43;100520.53;;;21.24
66113;BMP280;52893;52.870;5.822;2023-07-29T10:26:16;100536.28;;;21.38
66113;BMP280;52893;52.870;5.822;2023-07-29T10:28:52;100525.06;;;21.48
66113;BMP280;52893;52.870;5.822;2023-07-29T10:31:22;100492.44;;;21.60
66113;BMP280;52893;52.870;5.822;2023-07-29T10:33:50;100531.44;;;22.20
66113;BMP280;52893;52.870;5.822;2023-07-29T10:36:19;100528.03;;;22.36
66113;BMP280;52893;52.870;5.822;2023-07-29T10:38:46;100521.75;;;22.85
66113;BMP280;52893;52.870;5.822;2023-07-29T10:41:14;100528.59;;;23.04
66113;BMP280;52893;52.870;5.822;2023-07-29T10:43:41;100541.09;;;23.15
66113;BMP280;52893;52.870;5.822;2023-07-29T10:46:19;100552.94;;;23.23
66113;BMP280;52893;52.870;5.822;2023-07-29T10:48:55;100489.31;;;22.75
66113;BMP280;52893;52.870;5.822;2023-07-29T10:51:27;100539.94;;;22.90
66113;BMP280;52893;52.870;5.822;2023-07-29T10:53:57;100553.25;;;22.79
66113;BMP280;52893;52.870;5.822;2023-07-29T10:56:30;100501.75;;;22.40
66113;BMP280;52893;52.870;5.822;2023-07-29T10:59:00;100443.56;;;21.96
66113;BMP280;52893;52.870;5.822;2023-07-29T11:01:31;100533.38;;;22.50
66113;BMP280;52893;52.870;5.822;2023-07-29T11:04:24;100555.59;;;22.53
66113;BMP280;52893;52.870;5.822;2023-07-29T11:07:23;100552.38;;;22.58
66113;BMP280;52893;52.870;5.822;2023-07-29T11:09:54;100520.13;;;22.31
66113;BMP280;52893;52.870;5.822;2023-07-29T11:12:40;100556.25;;;22.34
66113;BMP280;52893;52.870;5.822;2023-07-29T11:15:16;100551.97;;;22.26
66113;BMP280;52893;52.870;5.822;2023-07-29T11:17:49;100533.75;;;22.25
66113;BMP280;52893;52.870;5.822;2023-07-29T11:20:18;100548.00;;;22.57
66113;BMP280;52893;52.870;5.822;2023-07-29T11:22:46;100549.53;;;23.12
66113;BMP280;52893;52.870;5.822;2023-07-29T11:25:18;100549.16;;;23.56
66113;BMP280;52893;52.870;5.822;2023-07-29T11:27:48;100479.59;;;23.06
66113;BMP280;52893;52.870;5.822;2023-07-29T11:30:18;100556.41;;;23.50
66113;BMP280;52893;52.870;5.822;2023-07-29T11:32:47;100536.56;;;23.48
66113;BMP280;52893;52.870;5.822;2023-07-29T11:35:18;100561.78;;;23.61
66113;BMP280;52893;52.870;5.822;2023-07-29T11:37:47;100571.66;;;23.65
66113;BMP280;52893;52.870;5.822;2023-07-29T11:40:17;100555.47;;;23.60
66113;BMP280;52893;52.870;5.822;2023-07-29T11:42:45;100532.09;;;23.31
66113;BMP280;52893;52.870;5.822;2023-07-29T11:45:13;100566.81;;;23.46
66113;BMP280;52893;52.870;5.822;2023-07-29T11:47:41;100568.78;;;23.26
66113;BMP280;52893;52.870;5.822;2023-07-29T11:50:11;100550.25;;;22.93
66113;BMP280;52893;52.870;5.822;2023-07-29T11:52:41;100569.34;;;22.91
66113;BMP280;52893;52.870;5.822;2023-07-29T11:55:09;100570.47;;;22.97
66113;BMP280;52893;52.870;5.822;2023-07-29T11:57:38;100570.47;;;22.97
66113;BMP280;52893;52.870;5.822;2023-07-29T12:00:08;100568.78;;;23.03
66113;BMP280;52893;52.870;5.822;2023-07-29T12:02:38;100566.13;;;22.96
66113;BMP280;52893;52.870;5.822;2023-07-29T12:05:06;100529.31;;;22.58
66113;BMP280;52893;52.870;5.822;2023-07-29T12:07:39;100574.16;;;22.90
66113;BMP280;52893;52.870;5.822;2023-07-29T12:10:07;100577.25;;;22.96
66113;BMP280;52893;52.870;5.822;2023-07-29T12:12:44;100511.47;;;22.55
66113;BMP280;52893;52.870;5.822;2023-07-29T12:15:13;100574.03;;;22.97
66113;BMP280;52893;52.870;5.822;2023-07-29T12:17:53;100565.53;;;22.81
66113;BMP280;52893;52.870;5.822;2023-07-29T12:20:22;100573.88;;;22.81
66113;BMP280;52893;52.870;5.822;2023-07-29T12:22:56;100580.59;;;22.84
66113;BMP280;52893;52.870;5.822;2023-07-29T12:25:24;100566.28;;;22.85
66113;BMP280;52893;52.870;5.822;2023-07-29T12:27:53;100585.97;;;23.44
66113;BMP280;52893;52.870;5.822;2023-07-29T12:30:22;100511.63;;;23.61
66113;BMP280;52893;52.870;5.822;2023-07-29T12:32:50;100575.13;;;24.48
66113;BMP280;52893;52.870;5.822;2023-07-29T12:35:22;100568.63;;;24.87
66113;BMP280;52893;52.870;5.822;2023-07-29T12:37:59;100568.34;;;25.30
66113;BMP280;52893;52.870;5.822;2023-07-29T12:40:27;100572.09;;;25.68
66113;BMP280;52893;52.870;5.822;2023-07-29T12:42:55;100492.97;;;25.55
66113;BMP280;52893;52.870;5.822;2023-07-29T12:45:23;100565.28;;;26.23
66113;BMP280;52893;52.870;5.822;2023-07-29T12:47:53;100533.25;;;26.11
66113;BMP280;52893;52.870;5.822;2023-07-29T12:50:20;100534.13;;;26.08
66113;BMP280;52893;52.870;5.822;2023-07-29T12:52:49;100568.06;;;26.10
66113;BMP280;52893;52.870;5.822;2023-07-29T12:55:18;100530.06;;;25.84
66113;BMP280;52893;52.870;5.822;2023-07-29T12:57:45;100568.53;;;25.80
66113;BMP280;52893;52.870;5.822;2023-07-29T13:00:13;100570.75;;;25.44
66113;BMP280;52893;52.870;5.822;2023-07-29T13:02:40;100551.13;;;25.31
66113;BMP280;52893;52.870;5.822;2023-07-29T13:05:10;100538.09;;;25.41
66113;BMP280;52893;52.870;5.822;2023-07-29T13:07:38;100560.00;;;25.71
66113;BMP280;52893;52.870;5.822;2023-07-29T13:10:06;100565.09;;;25.60
66113;BMP280;52893;52.870;5.822;2023-07-29T13:12:35;100547.38;;;25.38
66113;BMP280;52893;52.870;5.822;2023-07-29T13:15:03;100551.47;;;25.33
66113;BMP280;52893;52.870;5.822;2023-07-29T13:17:31;100520.09;;;24.97
66113;BMP280;52893;52.870;5.822;2023-07-29T13:19:59;100564.34;;;25.14
66113;BMP280;52893;52.870;5.822;2023-07-29T13:22:26;100514.50;;;24.81
66113;BMP280;52893;52.870;5.822;2023-07-29T13:24:54;100545.06;;;25.04
66113;BMP280;52893;52.870;5.822;2023-07-29T13:27:23;100555.50;;;25.16
66113;BMP280;52893;52.870;5.822;2023-07-29T13:29:53;100561.19;;;25.12
66113;BMP280;52893;52.870;5.822;2023-07-29T13:32:20;100563.09;;;25.15
66113;BMP280;52893;52.870;5.822;2023-07-29T13:34:48;100481.09;;;24.77
66113;BMP280;52893;52.870;5.822;2023-07-29T13:37:15;100494.41;;;25.18
66113;BMP280;52893;52.870;5.822;2023-07-29T13:39:43;100561.44;;;26.04
66113;BMP280;52893;52.870;5.822;2023-07-29T13:42:13;100537.97;;;26.14
66113;BMP280;52893;52.870;5.822;2023-07-29T13:44:41;100486.69;;;26.17
66113;BMP280;52893;52.870;5.822;2023-07-29T13:47:10;100569.28;;;26.85
66113;BMP280;52893;52.870;5.822;2023-07-29T13:49:45;100496.31;;;26.29
66113;BMP280;52893;52.870;5.822;2023-07-29T13:52:39;100399.53;;;25.81
66113;BMP280;52893;52.870;5.822;2023-07-29T13:55:09;100575.94;;;27.00
66113;BMP280;52893;52.870;5.822;2023-07-29T13:57:37;100583.69;;;27.08
66113;BMP280;52893;52.870;5.822;2023-07-29T14:00:07;100494.88;;;26.84
66113;BMP280;52893;52.870;5.822;2023-07-29T14:02:50;100537.94;;;27.33
66113;BMP280;52893;52.870;5.822;2023-07-29T14:05:17;100587.81;;;27.72